sensor_id;sensor_type;location;lat;lon;timestamp;pressure;altitude;pressure_sealevel;temperature
73673;BMP280;61972;19.480;-99.240;2023-07-22T00:00:36;77718.78;;;32.42
73673;BMP280;61972;19.480;-99.240;2023-07-22T00:03:02;77720.88;;;32.41
73673;BMP280;61972;19.480;-99.240;2023-07-22T00:05:28;77724.50;;;32.40
73673;BMP280;61972;19.480;-99.240;2023-07-22T00:07:57;77723.41;;;32.39
73673;BMP280;61972;19.480;-99.240;2023-07-22T00:10:23;77722.75;;;32.36
73673;BMP280;61972;19.480;-99.240;2023-07-22T00:12:49;77722.75;;;32.36
73673;BMP280;61972;19.480;-99.240;2023-07-22T00:15:16;77726.94;;;32.35
73673;BMP280;61972;19.480;-99.240;2023-07-22T00:17:48;77726.38;;;32.34
73673;BMP280;61972;19.480;-99.240;2023-07-22T00:25:58;77733.34;;;32.36
73673;BMP280;61972;19.480;-99.240;2023-07-22T00:28:40;77731.13;;;32.34
73673;BMP280;61972;19.480;-99.240;2023-07-22T00:31:09;77735.84;;;32.33
73673;BMP280;61972;19.480;-99.240;2023-07-22T00:33:35;77725.84;;;32.34
73673;BMP280;61972;19.480;-99.240;2023-07-22T00:36:04;77730.03;;;32.33
73673;BMP280;61972;19.480;-99.240;2023-07-22T00:38:30;77734.22;;;32.32
73673;BMP280;61972;19.480;-99.240;2023-07-22T00:40:56;77743.25;;;32.33
73673;BMP280;61972;19.480;-99.240;2023-07-22T00:43:29;77750.09;;;32.32
73673;BMP280;61972;19.480;-99.240;2023-07-22T00:48:48;77744.22;;;32.31
73673;BMP280;61972;19.480;-99.240;2023-07-22T00:51:16;77747.44;;;32.32
73673;BMP280;61972;19.480;-99.240;2023-07-22T00:53:42;77743.16;;;32.30
73673;BMP280;61972;19.480;-99.240;2023-07-22T00:56:08;77746.78;;;32.28
73673;BMP280;61972;19.480;-99.240;2023-07-22T00:58:34;77743.03;;;32.27
73673;BMP280;61972;19.480;-99.240;2023-07-22T01:01:00;77749.84;;;32.26
73673;BMP280;61972;19.480;-99.240;2023-07-22T01:03:26;77749.84;;;32.26
73673;BMP280;61972;19.480;-99.240;2023-07-22T01:05:53;77746.66;;;32.26
73673;BMP280;61972;19.480;-99.240;2023-07-22T01:08:23;77750.94;;;32.27
73673;BMP280;61972;19.480;-99.240;2023-07-22T01:10:50;77755.16;;;32.26
73673;BMP280;61972;19.480;-99.240;2023-07-22T01:13:16;77760.97;;;32.27
73673;BMP280;61972;19.480;-99.240;2023-07-22T01:15:45;77757.34;;;32.28
73673;BMP280;61972;19.480;-99.240;2023-07-22T01:18:11;77763.31;;;32.32
73673;BMP280;61972;19.480;-99.240;2023-07-22T01:23:18;77769.59;;;32.42
73673;BMP280;61972;19.480;-99.240;2023-07-22T01:25:44;77767.72;;;32.48
73673;BMP280;61972;19.480;-99.240;2023-07-22T01:28:13;77773.22;;;32.53
73673;BMP280;61972;19.480;-99.240;2023-07-22T01:30:39;77775.53;;;32.58
73673;BMP280;61972;19.480;-99.240;2023-07-22T01:36:01;77780.28;;;32.70
73673;BMP280;61972;19.480;-99.240;2023-07-22T01:38:30;77782.69;;;32.77
73673;BMP280;61972;19.480;-99.240;2023-07-22T01:40:56;77779.84;;;32.84
73673;BMP280;61972;19.480;-99.240;2023-07-22T01:43:29;77780.06;;;32.89
73673;BMP280;61972;19.480;-99.240;2023-07-22T01:46:21;77792.94;;;32.94
73673;BMP280;61972;19.480;-99.240;2023-07-22T01:48:48;77782.00;;;32.98
73673;BMP280;61972;19.480;-99.240;2023-07-22T01:51:17;77784.22;;;33.00
73673;BMP280;61972;19.480;-99.240;2023-07-22T01:53:46;77777.38;;;33.01
73673;BMP280;61972;19.480;-99.240;2023-07-22T01:56:12;77767.88;;;33.02
73673;BMP280;61972;19.480;-99.240;2023-07-22T01:58:39;77772.19;;;33.04
73673;BMP280;61972;19.480;-99.240;2023-07-22T02:01:05;77780.69;;;33.04
73673;BMP280;61972;19.480;-99.240;2023-07-22T02:03:36;77784.00;;;33.07
73673;BMP280;61972;19.480;-99.240;2023-07-22T02:06:04;77778.25;;;33.10
73673;BMP280;61972;19.480;-99.240;2023-07-22T02:08:31;77778.91;;;33.13
73673;BMP280;61972;19.480;-99.240;2023-07-22T02:11:26;77782.19;;;33.16
73673;BMP280;61972;19.480;-99.240;2023-07-22T02:14:45;77776.91;;;33.16
73673;BMP280;61972;19.480;-99.240;2023-07-22T02:17:32;77787.31;;;33.11
73673;BMP280;61972;19.480;-99.240;2023-07-22T02:19:59;77784.00;;;33.07
73673;BMP280;61972;19.480;-99.240;2023-07-22T02:22:25;77786.09;;;33.07
73673;BMP280;61972;19.480;-99.240;2023-07-22T02:24:51;77787.09;;;33.05
73673;BMP280;61972;19.480;-99.240;2023-07-22T02:27:18;77799.88;;;33.07
73673;BMP280;61972;19.480;-99.240;2023-07-22T02:29:44;77795.66;;;33.08
73673;BMP280;61972;19.480;-99.240;2023-07-22T02:32:10;77789.28;;;33.07
73673;BMP280;61972;19.480;-99.240;2023-07-22T02:34:36;77796.56;;;33.04
73673;BMP280;61972;19.480;-99.240;2023-07-22T02:37:16;77791.06;;;32.99
73673;BMP280;61972;19.480;-99.240;2023-07-22T02:40:06;77797.25;;;32.95
73673;BMP280;61972;19.480;-99.240;2023-07-22T02:42:47;77808.16;;;32.91
73673;BMP280;61972;19.480;-99.240;2023-07-22T02:45:13;77809.47;;;32.84
73673;BMP280;61972;19.480;-99.240;2023-07-22T02:47:39;77817.78;;;32.80
73673;BMP280;61972;19.480;-99.240;2023-07-22T02:53:02;77824.59;;;32.66
73673;BMP280;61972;19.480;-99.240;2023-07-22T02:55:28;77831.34;;;32.63
73673;BMP280;61972;19.480;-99.240;2023-07-22T02:58:22;77815.13;;;32.55
73673;BMP280;61972;19.480;-99.240;2023-07-22T03:04:11;77828.47;;;32.45
73673;BMP280;61972;19.480;-99.240;2023-07-22T03:06:39;77831.41;;;32.41
73673;BMP280;61972;19.480;-99.240;2023-07-22T03:09:07;77823.28;;;32.36
73673;BMP280;61972;19.480;-99.240;2023-07-22T03:11:33;77827.88;;;32.33
73673;BMP280;61972;19.480;-99.240;2023-07-22T03:14:00;77835.16;;;32.29
73673;BMP280;61972;19.480;-99.240;2023-07-22T03:16:27;77833.94;;;32.26
73673;BMP280;61972;19.480;-99.240;2023-07-22T03:18:53;77836.50;;;32.23
73673;BMP280;61972;19.480;-99.240;2023-07-22T03:21:19;77832.06;;;32.19
73673;BMP280;61972;19.480;-99.240;2023-07-22T03:23:48;77834.03;;;32.16
73673;BMP280;61972;19.480;-99.240;2023-07-22T03:26:15;77843.41;;;32.13
73673;BMP280;61972;19.480;-99.240;2023-07-22T03:28:50;77845.94;;;32.10
73673;BMP280;61972;19.480;-99.240;2023-07-22T03:31:16;77851.09;;;32.07
73673;BMP280;61972;19.480;-99.240;2023-07-22T03:33:43;77848.88;;;32.05
73673;BMP280;61972;19.480;-99.240;2023-07-22T03:36:12;77855.59;;;32.02
73673;BMP280;61972;19.480;-99.240;2023-07-22T03:38:52;77861.28;;;32.00
73673;BMP280;61972;19.480;-99.240;2023-07-22T03:41:18;77855.91;;;31.97
73673;BMP280;61972;19.480;-99.240;2023-07-22T03:43:44;77850.94;;;31.93
73673;BMP280;61972;19.480;-99.240;2023-07-22T03:46:10;77854.53;;;31.91
73673;BMP280;61972;19.480;-99.240;2023-07-22T03:48:36;77855.44;;;31.87
73673;BMP280;61972;19.480;-99.240;2023-07-22T03:51:02;77864.34;;;31.85
73673;BMP280;61972;19.480;-99.240;2023-07-22T03:53:39;77872.16;;;31.83
73673;BMP280;61972;19.480;-99.240;2023-07-22T03:56:22;77876.34;;;31.82
73673;BMP280;61972;19.480;-99.240;2023-07-22T03:58:50;77887.88;;;31.80
73673;BMP280;61972;19.480;-99.240;2023-07-22T04:01:16;77887.22;;;31.77
73673;BMP280;61972;19.480;-99.240;2023-07-22T04:03:42;77884.03;;;31.77
73673;BMP280;61972;19.480;-99.240;2023-07-22T04:06:09;77888.75;;;31.76
73673;BMP280;61972;19.480;-99.240;2023-07-22T04:08:35;77892.94;;;31.75
73673;BMP280;61972;19.480;-99.240;2023-07-22T04:11:01;77897.00;;;31.71
73673;BMP280;61972;19.480;-99.240;2023-07-22T04:13:28;77898.41;;;31.68
73673;BMP280;61972;19.480;-99.240;2023-07-22T04:15:54;77904.13;;;31.66
73673;BMP280;61972;19.480;-99.240;2023-07-22T04:18:21;77905.66;;;31.65
73673;BMP280;61972;19.480;-99.240;2023-07-22T04:20:47;77915.13;;;31.64
73673;BMP280;61972;19.480;-99.240;2023-07-22T04:23:14;77910.84;;;31.62
73673;BMP280;61972;19.480;-99.240;2023-07-22T04:25:42;77924.03;;;31.62
73673;BMP280;61972;19.480;-99.240;2023-07-22T04:28:14;77916.53;;;31.60
73673;BMP280;61972;19.480;-99.240;2023-07-22T04:31:03;77925.44;;;31.59
73673;BMP280;61972;19.480;-99.240;2023-07-22T04:33:32;77933.34;;;31.59
73673;BMP280;61972;19.480;-99.240;2023-07-22T04:35:59;77936.00;;;31.59
73673;BMP280;61972;19.480;-99.240;2023-07-22T04:38:26;77941.75;;;31.57
73673;BMP280;61972;19.480;-99.240;2023-07-22T04:41:26;77949.09;;;31.56
73673;BMP280;61972;19.480;-99.240;2023-07-22T04:43:56;77947.44;;;31.55
73673;BMP280;61972;19.480;-99.240;2023-07-22T04:52:32;77954.94;;;31.57
73673;BMP280;61972;19.480;-99.240;2023-07-22T04:54:58;77962.88;;;31.57
73673;BMP280;61972;19.480;-99.240;2023-07-22T04:57:27;77961.88;;;31.58
73673;BMP280;61972;19.480;-99.240;2023-07-22T04:59:53;77965.63;;;31.59
73673;BMP280;61972;19.480;-99.240;2023-07-22T05:02:19;77976.75;;;31.60
73673;BMP280;61972;19.480;-99.240;2023-07-22T05:04:52;77981.06;;;31.61
73673;BMP280;61972;19.480;-99.240;2023-07-22T05:07:18;77971.59;;;31.62
73673;BMP280;61972;19.480;-99.240;2023-07-22T05:09:52;77978.00;;;31.63
73673;BMP280;61972;19.480;-99.240;2023-07-22T05:12:49;77976.47;;;31.64
73673;BMP280;61972;19.480;-99.240;2023-07-22T05:15:15;77976.56;;;31.67
73673;BMP280;61972;19.480;-99.240;2023-07-22T05:17:42;77977.13;;;31.67
73673;BMP280;61972;19.480;-99.240;2023-07-22T05:20:08;77976.56;;;31.67
73673;BMP280;61972;19.480;-99.240;2023-07-22T05:22:39;77982.97;;;31.68
73673;BMP280;61972;19.480;-99.240;2023-07-22T05:25:06;77978.25;;;31.68
73673;BMP280;61972;19.480;-99.240;2023-07-22T05:27:33;77979.34;;;31.69
73673;BMP280;61972;19.480;-99.240;2023-07-22T05:29:59;77978.78;;;31.69
73673;BMP280;61972;19.480;-99.240;2023-07-22T05:32:29;77973.50;;;31.69
73673;BMP280;61972;19.480;-99.240;2023-07-22T05:34:58;77984.06;;;31.69
73673;BMP280;61972;19.480;-99.240;2023-07-22T05:37:24;77984.06;;;31.69
73673;BMP280;61972;19.480;-99.240;2023-07-22T05:39:53;77985.63;;;31.68
73673;BMP280;61972;19.480;-99.240;2023-07-22T05:42:20;77990.34;;;31.67
73673;BMP280;61972;19.480;-99.240;2023-07-22T05:44:48;78003.56;;;31.67
73673;BMP280;61972;19.480;-99.240;2023-07-22T05:47:18;77986.03;;;31.66
73673;BMP280;61972;19.480;-99.240;2023-07-22T05:49:44;77990.22;;;31.65
73673;BMP280;61972;19.480;-99.240;2023-07-22T05:52:10;77992.88;;;31.65
73673;BMP280;61972;19.480;-99.240;2023-07-22T05:54:36;77992.75;;;31.62
73673;BMP280;61972;19.480;-99.240;2023-07-22T05:57:03;77993.59;;;31.58
73673;BMP280;61972;19.480;-99.240;2023-07-22T05:59:30;77991.94;;;31.57
73673;BMP280;61972;19.480;-99.240;2023-07-22T06:01:57;78000.28;;;31.55
73673;BMP280;61972;19.480;-99.240;2023-07-22T06:04:23;77996.53;;;31.54
73673;BMP280;61972;19.480;-99.240;2023-07-22T06:06:49;77991.69;;;31.51
73673;BMP280;61972;19.480;-99.240;2023-07-22T06:09:15;77984.16;;;31.49
73673;BMP280;61972;19.480;-99.240;2023-07-22T06:11:42;77976.53;;;31.45
73673;BMP280;61972;19.480;-99.240;2023-07-22T06:14:08;77980.03;;;31.41
73673;BMP280;61972;19.480;-99.240;2023-07-22T06:16:35;77984.50;;;31.35
73673;BMP280;61972;19.480;-99.240;2023-07-22T06:19:01;77980.09;;;31.31
73673;BMP280;61972;19.480;-99.240;2023-07-22T06:21:27;77976.75;;;31.28
73673;BMP280;61972;19.480;-99.240;2023-07-22T06:23:53;77973.84;;;31.23
73673;BMP280;61972;19.480;-99.240;2023-07-22T06:26:19;77967.88;;;31.20
73673;BMP280;61972;19.480;-99.240;2023-07-22T06:28:45;77964.56;;;31.17
73673;BMP280;61972;19.480;-99.240;2023-07-22T06:31:11;77961.25;;;31.13
73673;BMP280;61972;19.480;-99.240;2023-07-22T06:33:37;77960.00;;;31.10
73673;BMP280;61972;19.480;-99.240;2023-07-22T06:36:04;77958.78;;;31.06
73673;BMP280;61972;19.480;-99.240;2023-07-22T06:38:30;77964.91;;;31.02
73673;BMP280;61972;19.480;-99.240;2023-07-22T06:40:56;77957.41;;;31.00
73673;BMP280;61972;19.480;-99.240;2023-07-22T06:43:23;77951.44;;;30.97
73673;BMP280;61972;19.480;-99.240;2023-07-22T06:45:49;77956.59;;;30.95
73673;BMP280;61972;19.480;-99.240;2023-07-22T06:48:15;77953.25;;;30.91
73673;BMP280;61972;19.480;-99.240;2023-07-22T06:50:49;77961.59;;;30.89
73673;BMP280;61972;19.480;-99.240;2023-07-22T06:53:16;77966.19;;;30.86
73673;BMP280;61972;19.480;-99.240;2023-07-22T06:55:49;77955.50;;;30.84
73673;BMP280;61972;19.480;-99.240;2023-07-22T06:58:16;77955.91;;;30.82
73673;BMP280;61972;19.480;-99.240;2023-07-22T07:01:26;77952.72;;;30.81
73673;BMP280;61972;19.480;-99.240;2023-07-22T07:04:28;77939.13;;;30.83
73673;BMP280;61972;19.480;-99.240;2023-07-22T07:06:54;77939.13;;;30.83
73673;BMP280;61972;19.480;-99.240;2023-07-22T07:09:20;77933.28;;;30.83
73673;BMP280;61972;19.480;-99.240;2023-07-22T07:11:47;77924.81;;;30.82
73673;BMP280;61972;19.480;-99.240;2023-07-22T07:14:13;77923.28;;;30.83
73673;BMP280;61972;19.480;-99.240;2023-07-22T07:16:48;77919.53;;;30.82
73673;BMP280;61972;19.480;-99.240;2023-07-22T07:19:17;77920.50;;;30.81
73673;BMP280;61972;19.480;-99.240;2023-07-22T07:24:21;77897.88;;;30.82
73673;BMP280;61972;19.480;-99.240;2023-07-22T07:26:50;77888.84;;;30.81
73673;BMP280;61972;19.480;-99.240;2023-07-22T07:29:48;77883.56;;;30.81
73673;BMP280;61972;19.480;-99.240;2023-07-22T07:32:18;77888.84;;;30.81
73673;BMP280;61972;19.480;-99.240;2023-07-22T07:34:49;77891.47;;;30.81
73673;BMP280;61972;19.480;-99.240;2023-07-22T07:37:15;77892.47;;;30.79
73673;BMP280;61972;19.480;-99.240;2023-07-22T07:39:42;77891.91;;;30.79
73673;BMP280;61972;19.480;-99.240;2023-07-22T07:42:08;77885.53;;;30.78
73673;BMP280;61972;19.480;-99.240;2023-07-22T07:45:11;77890.13;;;30.74
73673;BMP280;61972;19.480;-99.240;2023-07-22T07:47:37;77887.06;;;30.77
73673;BMP280;61972;19.480;-99.240;2023-07-22T07:50:04;77884.28;;;30.74
73673;BMP280;61972;19.480;-99.240;2023-07-22T07:52:30;77879.97;;;30.72
73673;BMP280;61972;19.480;-99.240;2023-07-22T07:54:56;77881.94;;;30.69
73673;BMP280;61972;19.480;-99.240;2023-07-22T07:57:22;77884.56;;;30.69
73673;BMP280;61972;19.480;-99.240;2023-07-22T07:59:48;77886.69;;;30.69
73673;BMP280;61972;19.480;-99.240;2023-07-22T08:02:17;77885.00;;;30.67
73673;BMP280;61972;19.480;-99.240;2023-07-22T08:04:43;77884.44;;;30.67
73673;BMP280;61972;19.480;-99.240;2023-07-22T08:07:10;77883.88;;;30.66
73673;BMP280;61972;19.480;-99.240;2023-07-22T08:09:36;77873.78;;;30.64
73673;BMP280;61972;19.480;-99.240;2023-07-22T08:12:02;77884.75;;;30.62
73673;BMP280;61972;19.480;-99.240;2023-07-22T08:14:28;77874.75;;;30.63
73673;BMP280;61972;19.480;-99.240;2023-07-22T08:16:55;77873.63;;;30.62
73673;BMP280;61972;19.480;-99.240;2023-07-22T08:19:22;77868.94;;;30.62
73673;BMP280;61972;19.480;-99.240;2023-07-22T08:21:48;77862.13;;;30.63
73673;BMP280;61972;19.480;-99.240;2023-07-22T08:24:14;77859.50;;;30.63
73673;BMP280;61972;19.480;-99.240;2023-07-22T08:26:40;77856.28;;;30.63
73673;BMP280;61972;19.480;-99.240;2023-07-22T08:29:30;77858.22;;;30.60
73673;BMP280;61972;19.480;-99.240;2023-07-22T08:31:58;77856.16;;;30.60
73673;BMP280;61972;19.480;-99.240;2023-07-22T08:34:41;77851.41;;;30.61
73673;BMP280;61972;19.480;-99.240;2023-07-22T08:37:19;77844.50;;;30.59
73673;BMP280;61972;19.480;-99.240;2023-07-22T08:43:23;77844.22;;;30.54
73673;BMP280;61972;19.480;-99.240;2023-07-22T08:46:06;77841.03;;;30.53
73673;BMP280;61972;19.480;-99.240;2023-07-22T08:48:36;77843.69;;;30.53
73673;BMP280;61972;19.480;-99.240;2023-07-22T08:51:10;77841.59;;;30.54
73673;BMP280;61972;19.480;-99.240;2023-07-22T08:53:36;77833.69;;;30.54
73673;BMP280;61972;19.480;-99.240;2023-07-22T08:56:03;77825.78;;;30.54
73673;BMP280;61972;19.480;-99.240;2023-07-22T08:58:30;77823.13;;;30.54
73673;BMP280;61972;19.480;-99.240;2023-07-22T09:00:57;77813.16;;;30.54
73673;BMP280;61972;19.480;-99.240;2023-07-22T09:03:24;77807.31;;;30.54
73673;BMP280;61972;19.480;-99.240;2023-07-22T09:05:51;77807.31;;;30.54
73673;BMP280;61972;19.480;-99.240;2023-07-22T09:08:17;77795.63;;;30.53
73673;BMP280;61972;19.480;-99.240;2023-07-22T09:10:47;77799.81;;;30.52
73673;BMP280;61972;19.480;-99.240;2023-07-22T09:13:14;77796.63;;;30.51
73673;BMP280;61972;19.480;-99.240;2023-07-22T09:15:43;77792.88;;;30.50
73673;BMP280;61972;19.480;-99.240;2023-07-22T09:18:10;77788.19;;;30.51
73673;BMP280;61972;19.480;-99.240;2023-07-22T09:20:37;77782.91;;;30.51
73673;BMP280;61972;19.480;-99.240;2023-07-22T09:25:45;77778.59;;;30.49
73673;BMP280;61972;19.480;-99.240;2023-07-22T09:28:11;77774.84;;;30.48
73673;BMP280;61972;19.480;-99.240;2023-07-22T09:30:41;77775.81;;;30.47
73673;BMP280;61972;19.480;-99.240;2023-07-22T09:33:20;77773.63;;;30.45
73673;BMP280;61972;19.480;-99.240;2023-07-22T09:35:57;77776.25;;;30.45
73673;BMP280;61972;19.480;-99.240;2023-07-22T09:38:25;77769.31;;;30.43
73673;BMP280;61972;19.480;-99.240;2023-07-22T09:40:57;77768.63;;;30.40
73673;BMP280;61972;19.480;-99.240;2023-07-22T09:43:30;77767.53;;;30.39
73673;BMP280;61972;19.480;-99.240;2023-07-22T09:49:18;77771.78;;;30.50
73673;BMP280;61972;19.480;-99.240;2023-07-22T09:51:45;77770.38;;;30.54
73673;BMP280;61972;19.480;-99.240;2023-07-22T09:54:26;77778.97;;;30.57
73673;BMP280;61972;19.480;-99.240;2023-07-22T09:57:06;77792.44;;;30.62
73673;BMP280;61972;19.480;-99.240;2023-07-22T09:59:53;77786.84;;;30.67
73673;BMP280;61972;19.480;-99.240;2023-07-22T10:02:22;77793.34;;;30.70
73673;BMP280;61972;19.480;-99.240;2023-07-22T10:04:52;77803.06;;;30.74
73673;BMP280;61972;19.480;-99.240;2023-07-22T10:07:19;77803.75;;;30.78
73673;BMP280;61972;19.480;-99.240;2023-07-22T10:09:46;77805.50;;;30.82
73673;BMP280;61972;19.480;-99.240;2023-07-22T10:12:13;77814.09;;;30.85
73673;BMP280;61972;19.480;-99.240;2023-07-22T10:14:41;77804.34;;;30.90
73673;BMP280;61972;19.480;-99.240;2023-07-22T10:17:08;77804.59;;;30.96
73673;BMP280;61972;19.480;-99.240;2023-07-22T10:19:34;77805.41;;;31.01
73673;BMP280;61972;19.480;-99.240;2023-07-22T10:22:01;77801.47;;;31.07
73673;BMP280;61972;19.480;-99.240;2023-07-22T10:24:28;77805.91;;;31.11
73673;BMP280;61972;19.480;-99.240;2023-07-22T10:26:54;77805.03;;;31.16
73673;BMP280;61972;19.480;-99.240;2023-07-22T10:29:28;77802.13;;;31.20
73673;BMP280;61972;19.480;-99.240;2023-07-22T10:31:55;77798.03;;;31.24
73673;BMP280;61972;19.480;-99.240;2023-07-22T10:34:24;77807.75;;;31.28
73673;BMP280;61972;19.480;-99.240;2023-07-22T10:36:50;77802.59;;;31.30
73673;BMP280;61972;19.480;-99.240;2023-07-22T10:39:27;77802.69;;;31.33
73673;BMP280;61972;19.480;-99.240;2023-07-22T10:42:06;77810.19;;;31.35
73673;BMP280;61972;19.480;-99.240;2023-07-22T10:44:35;77806.69;;;31.39
73673;BMP280;61972;19.480;-99.240;2023-07-22T10:47:32;77807.94;;;31.43
73673;BMP280;61972;19.480;-99.240;2023-07-22T10:50:06;77815.97;;;31.45
73673;BMP280;61972;19.480;-99.240;2023-07-22T10:52:43;77814.41;;;31.46
73673;BMP280;61972;19.480;-99.240;2023-07-22T10:55:17;77814.97;;;31.47
73673;BMP280;61972;19.480;-99.240;2023-07-22T10:57:51;77810.69;;;31.45
73673;BMP280;61972;19.480;-99.240;2023-07-22T11:00:19;77807.59;;;31.47
73673;BMP280;61972;19.480;-99.240;2023-07-22T11:03:13;77802.75;;;31.45
73673;BMP280;61972;19.480;-99.240;2023-07-22T11:05:50;77808.03;;;31.45
73673;BMP280;61972;19.480;-99.240;2023-07-22T11:08:35;77810.97;;;31.41
73673;BMP280;61972;19.480;-99.240;2023-07-22T11:11:04;77810.47;;;31.40
73673;BMP280;61972;19.480;-99.240;2023-07-22T11:13:37;77815.63;;;31.38
73673;BMP280;61972;19.480;-99.240;2023-07-22T11:16:09;77817.59;;;31.35
73673;BMP280;61972;19.480;-99.240;2023-07-22T11:18:40;77812.16;;;31.32
73673;BMP280;61972;19.480;-99.240;2023-07-22T11:21:10;77817.88;;;31.30
73673;BMP280;61972;19.480;-99.240;2023-07-22T11:23:37;77831.53;;;31.28
73673;BMP280;61972;19.480;-99.240;2023-07-22T11:26:03;77823.59;;;31.28
73673;BMP280;61972;19.480;-99.240;2023-07-22T11:28:33;77830.41;;;31.27
73673;BMP280;61972;19.480;-99.240;2023-07-22T11:30:59;77837.75;;;31.26
73673;BMP280;61972;19.480;-99.240;2023-07-22T11:33:34;77837.22;;;31.26
73673;BMP280;61972;19.480;-99.240;2023-07-22T11:36:03;77831.63;;;31.30
73673;BMP280;61972;19.480;-99.240;2023-07-22T11:38:29;77837.28;;;31.38
73673;BMP280;61972;19.480;-99.240;2023-07-22T11:40:55;77841.28;;;31.44
73673;BMP280;61972;19.480;-99.240;2023-07-22T11:43:21;77836.22;;;31.49
73673;BMP280;61972;19.480;-99.240;2023-07-22T11:45:48;77844.25;;;31.52
73673;BMP280;61972;19.480;-99.240;2023-07-22T11:48:14;77842.88;;;31.56
73673;BMP280;61972;19.480;-99.240;2023-07-22T11:50:40;77850.47;;;31.60
73673;BMP280;61972;19.480;-99.240;2023-07-22T11:53:07;77850.72;;;31.65
73673;BMP280;61972;19.480;-99.240;2023-07-22T11:55:37;77853.06;;;31.70
73673;BMP280;61972;19.480;-99.240;2023-07-22T11:58:03;77857.47;;;31.74
73673;BMP280;61972;19.480;-99.240;2023-07-22T12:00:30;77863.00;;;31.79
73673;BMP280;61972;19.480;-99.240;2023-07-22T12:02:56;77868.22;;;31.89
73673;BMP280;61972;19.480;-99.240;2023-07-22T12:05:24;77874.75;;;32.05
73673;BMP280;61972;19.480;-99.240;2023-07-22T12:07:50;77873.50;;;32.23
73673;BMP280;61972;19.480;-99.240;2023-07-22T12:10:16;77876.50;;;32.43
73673;BMP280;61972;19.480;-99.240;2023-07-22T12:12:44;77872.25;;;32.54
73673;BMP280;61972;19.480;-99.240;2023-07-22T12:15:12;77868.38;;;32.63
73673;BMP280;61972;19.480;-99.240;2023-07-22T12:17:50;77868.84;;;32.73
73673;BMP280;61972;19.480;-99.240;2023-07-22T12:20:17;77869.50;;;32.88
73673;BMP280;61972;19.480;-99.240;2023-07-22T12:22:44;77867.53;;;33.04
73673;BMP280;61972;19.480;-99.240;2023-07-22T12:25:10;77879.88;;;33.20
73673;BMP280;61972;19.480;-99.240;2023-07-22T12:27:37;77870.91;;;33.34
73673;BMP280;61972;19.480;-99.240;2023-07-22T12:30:04;77872.88;;;33.43
73673;BMP280;61972;19.480;-99.240;2023-07-22T12:32:33;77879.16;;;33.54
73673;BMP280;61972;19.480;-99.240;2023-07-22T12:34:59;77882.13;;;33.62
73673;BMP280;61972;19.480;-99.240;2023-07-22T12:37:25;77884.09;;;33.71
73673;BMP280;61972;19.480;-99.240;2023-07-22T12:39:51;77882.75;;;33.77
73673;BMP280;61972;19.480;-99.240;2023-07-22T12:42:17;77882.50;;;33.84
73673;BMP280;61972;19.480;-99.240;2023-07-22T12:44:43;77884.56;;;33.96
73673;BMP280;61972;19.480;-99.240;2023-07-22T12:47:09;77884.63;;;34.11
73673;BMP280;61972;19.480;-99.240;2023-07-22T12:49:35;77890.34;;;34.21
73673;BMP280;61972;19.480;-99.240;2023-07-22T12:52:01;77891.84;;;34.33
73673;BMP280;61972;19.480;-99.240;2023-07-22T12:54:31;77895.56;;;34.46
73673;BMP280;61972;19.480;-99.240;2023-07-22T12:56:57;77893.84;;;34.57
73673;BMP280;61972;19.480;-99.240;2023-07-22T12:59:23;77892.47;;;34.63
73673;BMP280;61972;19.480;-99.240;2023-07-22T13:01:49;77892.66;;;34.68
73673;BMP280;61972;19.480;-99.240;2023-07-22T13:04:15;77897.28;;;34.77
73673;BMP280;61972;19.480;-99.240;2023-07-22T13:06:41;77907.06;;;34.84
73673;BMP280;61972;19.480;-99.240;2023-07-22T13:09:07;77910.56;;;34.92
73673;BMP280;61972;19.480;-99.240;2023-07-22T13:11:35;77914.03;;;35.00
73673;BMP280;61972;19.480;-99.240;2023-07-22T13:14:01;77918.06;;;35.09
73673;BMP280;61972;19.480;-99.240;2023-07-22T13:16:28;77920.38;;;35.14
73673;BMP280;61972;19.480;-99.240;2023-07-22T13:18:54;77921.84;;;35.10
73673;BMP280;61972;19.480;-99.240;2023-07-22T13:21:21;77912.69;;;35.07
73673;BMP280;61972;19.480;-99.240;2023-07-22T13:23:47;77924.22;;;35.02
73673;BMP280;61972;19.480;-99.240;2023-07-22T13:26:14;77918.53;;;34.92
73673;BMP280;61972;19.480;-99.240;2023-07-22T13:28:40;77925.56;;;34.81
73673;BMP280;61972;19.480;-99.240;2023-07-22T13:31:06;77930.03;;;34.73
73673;BMP280;61972;19.480;-99.240;2023-07-22T13:33:32;77921.66;;;34.63
73673;BMP280;61972;19.480;-99.240;2023-07-22T13:35:58;77925.50;;;34.52
73673;BMP280;61972;19.480;-99.240;2023-07-22T13:38:24;77930.75;;;34.37
73673;BMP280;61972;19.480;-99.240;2023-07-22T13:40:51;77920.63;;;34.22
73673;BMP280;61972;19.480;-99.240;2023-07-22T13:43:17;77931.84;;;34.11
73673;BMP280;61972;19.480;-99.240;2023-07-22T13:45:44;77932.84;;;33.97
73673;BMP280;61972;19.480;-99.240;2023-07-22T13:48:10;77941.53;;;33.75
73673;BMP280;61972;19.480;-99.240;2023-07-22T13:50:37;77937.38;;;33.52
73673;BMP280;61972;19.480;-99.240;2023-07-22T13:53:03;77929.56;;;33.30
73673;BMP280;61972;19.480;-99.240;2023-07-22T13:55:30;77932.28;;;33.07
73673;BMP280;61972;19.480;-99.240;2023-07-22T13:57:56;77931.38;;;32.87
73673;BMP280;61972;19.480;-99.240;2023-07-22T14:00:22;77930.47;;;32.66
73673;BMP280;61972;19.480;-99.240;2023-07-22T14:02:48;77930.66;;;32.47
73673;BMP280;61972;19.480;-99.240;2023-07-22T14:05:14;77916.50;;;32.26
73673;BMP280;61972;19.480;-99.240;2023-07-22T14:07:40;77919.28;;;32.07
73673;BMP280;61972;19.480;-99.240;2023-07-22T14:10:06;77911.63;;;31.90
73673;BMP280;61972;19.480;-99.240;2023-07-22T14:12:35;77920.34;;;31.74
73673;BMP280;61972;19.480;-99.240;2023-07-22T14:15:01;77915.72;;;31.55
73673;BMP280;61972;19.480;-99.240;2023-07-22T14:17:30;77920.28;;;31.39
73673;BMP280;61972;19.480;-99.240;2023-07-22T14:19:58;77914.22;;;31.24
73673;BMP280;61972;19.480;-99.240;2023-07-22T14:22:24;77916.25;;;31.11
73673;BMP280;61972;19.480;-99.240;2023-07-22T14:24:51;77920.16;;;30.95
73673;BMP280;61972;19.480;-99.240;2023-07-22T14:27:17;77917.44;;;30.83
73673;BMP280;61972;19.480;-99.240;2023-07-22T14:29:43;77914.72;;;30.70
73673;BMP280;61972;19.480;-99.240;2023-07-22T14:32:09;77913.63;;;30.60
73673;BMP280;61972;19.480;-99.240;2023-07-22T14:34:35;77917.81;;;30.49